JAF74 EBBR-EBBR
Flight info
| Callsign | JAF74 |
|---|---|
| Flight time | 0h 12m |
| Altitude | 35000 |
| Route | SOPOK Y863 ROPUV L607 EMGOD DCT MOVUM T109 HAREM T104 ROKIL ROKIL1A |
| Aircraft | B763/H-SDE3FGHIM3RWXY/LB1 |
Departure
| Time | 2026-04-30 14:02 |
|---|---|
| Airport | Brussels Airport (EBBR) |
Arrival
| Time | 2026-04-30 14:14 |
|---|---|
| Airport | Brussels Airport (EBBR) |
| Time | Latitude | Longitude | Altitude | Speed | Heading |
|---|---|---|---|---|---|
| 2026-04-30 14:02 | 50.73264 | 4.62641 | 5484 ft | 273 kts | 243° |
| 2026-04-30 14:02 | 50.72548 | 4.59931 | 5232 ft | 266 kts | 242° |
| 2026-04-30 14:02 | 50.71846 | 4.57255 | 4864 ft | 261 kts | 242° |
| 2026-04-30 14:03 | 50.71146 | 4.54619 | 4333 ft | 260 kts | 243° |
| 2026-04-30 14:03 | 50.70431 | 4.52035 | 3836 ft | 259 kts | 243° |
| 2026-04-30 14:03 | 50.69681 | 4.49428 | 3363 ft | 257 kts | 243° |
| 2026-04-30 14:03 | 50.68926 | 4.46848 | 2936 ft | 260 kts | 243° |
| 2026-04-30 14:04 | 50.68183 | 4.44268 | 2403 ft | 259 kts | 242° |
| 2026-04-30 14:04 | 50.67437 | 4.41722 | 2014 ft | 255 kts | 242° |
| 2026-04-30 14:04 | 50.66696 | 4.39178 | 1714 ft | 251 kts | 243° |
| 2026-04-30 14:04 | 50.65959 | 4.36661 | 1151 ft | 254 kts | 243° |
| 2026-04-30 14:05 | 50.65210 | 4.34137 | 803 ft | 244 kts | 242° |
| 2026-04-30 14:05 | 50.64562 | 4.31805 | 895 ft | 218 kts | 255° |
| 2026-04-30 14:05 | 50.64508 | 4.29634 | 1069 ft | 205 kts | 283° |
| 2026-04-30 14:05 | 50.65118 | 4.27536 | 1258 ft | 196 kts | 312° |
| 2026-04-30 14:06 | 50.65236 | 4.27325 | 1301 ft | 191 kts | 316° |
| 2026-04-30 14:07 | 50.65869 | 4.26491 | 1210 ft | 182 kts | 330° |
| 2026-04-30 14:07 | 50.66928 | 4.25400 | 1129 ft | 193 kts | 333° |
| 2026-04-30 14:07 | 50.68073 | 4.24302 | 1586 ft | 174 kts | 333° |
| 2026-04-30 14:08 | 50.70329 | 4.22184 | 1910 ft | 193 kts | 337° |
| 2026-04-30 14:08 | 50.71507 | 4.21157 | 2094 ft | 196 kts | 338° |
| 2026-04-30 14:08 | 50.73978 | 4.19489 | 2478 ft | 194 kts | 346° |
| 2026-04-30 14:09 | 50.75278 | 4.18804 | 2401 ft | 195 kts | 350° |
| 2026-04-30 14:09 | 50.76592 | 4.18243 | 2447 ft | 202 kts | 353° |
| 2026-04-30 14:09 | 50.79265 | 4.18440 | 2941 ft | 187 kts | 20° |
| 2026-04-30 14:10 | 50.80457 | 4.19254 | 2956 ft | 189 kts | 41° |
| 2026-04-30 14:10 | 50.81526 | 4.20524 | 2922 ft | 196 kts | 45° |
| 2026-04-30 14:10 | 50.82512 | 4.21953 | 3089 ft | 191 kts | 49° |
| 2026-04-30 14:10 | 50.83425 | 4.23492 | 3159 ft | 193 kts | 53° |
| 2026-04-30 14:11 | 50.84189 | 4.25192 | 3136 ft | 188 kts | 65° |
| 2026-04-30 14:11 | 50.84752 | 4.27058 | 3114 ft | 187 kts | 71° |
| 2026-04-30 14:11 | 50.85219 | 4.28923 | 3004 ft | 171 kts | 72° |
| 2026-04-30 14:11 | 50.85629 | 4.30598 | 2796 ft | 172 kts | 72° |
| 2026-04-30 14:12 | 50.86096 | 4.32497 | 2492 ft | 193 kts | 70° |
| 2026-04-30 14:12 | 50.86646 | 4.34417 | 2559 ft | 190 kts | 66° |
| 2026-04-30 14:12 | 50.87187 | 4.36165 | 2312 ft | 164 kts | 68° |
| 2026-04-30 14:12 | 50.87503 | 4.37243 | 1848 ft | 163 kts | 69° |
| 2026-04-30 14:13 | 50.88118 | 4.39324 | 1101 ft | 151 kts | 69° |
| 2026-04-30 14:13 | 50.88555 | 4.40903 | 856 ft | 166 kts | 70° |
| 2026-04-30 14:13 | 50.89050 | 4.42661 | 656 ft | 184 kts | 67° |
| 2026-04-30 14:13 | 50.89584 | 4.44477 | 401 ft | 174 kts | 67° |
| 2026-04-30 14:14 | 50.90097 | 4.46257 | 217 ft | 173 kts | 68° |
| 2026-04-30 14:14 | 50.90498 | 4.47659 | 197 ft | 93 kts | 68° |
| 2026-04-30 14:14 | 50.90636 | 4.48156 | 200 ft | 28 kts | 66° |
| 2026-04-30 14:14 | 50.90648 | 4.48326 | 195 ft | 9 kts | 113° |
| 2026-04-30 14:15 | 50.90625 | 4.48396 | 196 ft | 7 kts | 120° |
| 2026-04-30 14:15 | 50.90598 | 4.48470 | 190 ft | 8 kts | 119° |
| 2026-04-30 14:15 | 50.90585 | 4.48509 | 195 ft | 1 kts | 113° |
| 2026-04-30 14:15 | 50.90599 | 4.48623 | 193 ft | 32 kts | 65° |
| 2026-04-30 14:16 | 50.90678 | 4.48898 | 194 ft | 10 kts | 65° |
| 2026-04-30 14:16 | 50.90688 | 4.48933 | 198 ft | 3 kts | 65° |
| 2026-04-30 14:16 | 50.90700 | 4.48975 | 195 ft | 6 kts | 65° |
| 2026-04-30 14:16 | 50.90734 | 4.49095 | 196 ft | 18 kts | 66° |
| 2026-04-30 14:17 | 50.90789 | 4.49289 | 194 ft | 20 kts | 66° |
| 2026-04-30 14:17 | 50.90849 | 4.49493 | 195 ft | 20 kts | 66° |
| 2026-04-30 14:17 | 50.90831 | 4.49662 | 192 ft | 14 kts | 129° |
| 2026-04-30 14:17 | 50.90770 | 4.49718 | 196 ft | 6 kts | 179° |
| 2026-04-30 14:18 | 50.90642 | 4.49673 | 190 ft | 29 kts | 193° |
| 2026-04-30 14:18 | 50.90447 | 4.49593 | 196 ft | 29 kts | 195° |
| 2026-04-30 14:18 | 50.90074 | 4.49439 | 197 ft | 21 kts | 195° |
| 2026-04-30 14:19 | 50.89632 | 4.49250 | 193 ft | 29 kts | 201° |
| 2026-04-30 14:19 | 50.89455 | 4.49142 | 192 ft | 25 kts | 194° |
| 2026-04-30 14:19 | 50.89385 | 4.49078 | 191 ft | 5 kts | 249° |
| 2026-04-30 14:20 | 50.89399 | 4.48949 | 194 ft | 33 kts | 292° |
| 2026-04-30 14:20 | 50.89427 | 4.48846 | 190 ft | 0 kts | 294° |